createdAt,value
2018-05-29T00:02:14.523Z,22.40
2018-05-29T00:04:42.639Z,22.30
2018-05-29T00:07:11.526Z,22.20
2018-05-29T00:09:40.430Z,22.10
2018-05-29T00:12:09.332Z,22.10
2018-05-29T00:14:37.494Z,22.10
2018-05-29T00:17:06.515Z,22.00
2018-05-29T00:19:35.356Z,21.90
2018-05-29T00:22:03.466Z,21.90
2018-05-29T00:24:31.932Z,22.00
2018-05-29T00:27:00.054Z,22.00
2018-05-29T00:29:28.429Z,22.00
2018-05-29T00:31:57.047Z,22.00
2018-05-29T00:34:25.174Z,22.00
2018-05-29T00:36:53.667Z,21.90
2018-05-29T00:39:21.824Z,21.90
2018-05-29T00:41:49.948Z,21.80
2018-05-29T00:44:18.073Z,21.70
2018-05-29T00:46:46.188Z,21.70
2018-05-29T00:49:14.300Z,21.60
2018-05-29T00:51:42.444Z,21.60
2018-05-29T00:54:11.419Z,21.50
2018-05-29T00:56:39.621Z,21.40
2018-05-29T00:59:08.684Z,21.40
2018-05-29T01:01:36.859Z,21.40
2018-05-29T01:04:05.584Z,21.40
2018-05-29T01:06:34.446Z,21.60
2018-05-29T01:09:02.585Z,21.50
2018-05-29T01:11:30.747Z,21.60
2018-05-29T01:13:58.867Z,21.60
2018-05-29T01:16:28.363Z,21.70
2018-05-29T01:18:58.034Z,21.70
2018-05-29T01:21:26.145Z,21.70
2018-05-29T01:23:54.352Z,21.80
2018-05-29T01:26:23.057Z,21.80
2018-05-29T01:28:51.312Z,21.80
2018-05-29T01:31:20.787Z,21.70
2018-05-29T01:33:48.914Z,21.70
2018-05-29T01:36:17.043Z,21.70
2018-05-29T01:38:45.159Z,21.70
2018-05-29T01:41:13.304Z,21.70
2018-05-29T01:43:42.230Z,21.70
2018-05-29T01:46:11.172Z,21.70
2018-05-29T01:48:39.290Z,21.70
2018-05-29T01:51:08.729Z,21.70
2018-05-29T01:53:36.869Z,21.60
2018-05-29T01:56:04.965Z,21.60
2018-05-29T01:58:33.343Z,21.60
2018-05-29T02:01:01.431Z,21.60
2018-05-29T02:03:29.552Z,21.60
2018-05-29T02:05:59.047Z,21.50
2018-05-29T02:08:27.182Z,21.50
2018-05-29T02:10:55.305Z,21.50
2018-05-29T02:13:23.419Z,21.50
2018-05-29T02:15:51.538Z,21.40
2018-05-29T02:18:19.700Z,21.40
2018-05-29T02:20:49.506Z,21.40
2018-05-29T02:23:18.391Z,21.30
2018-05-29T02:25:47.312Z,21.20
2018-05-29T02:28:17.043Z,21.10
2018-05-29T02:30:45.157Z,21.10
2018-05-29T02:33:14.044Z,21.00
2018-05-29T02:35:42.339Z,21.00
2018-05-29T02:38:10.524Z,21.00
2018-05-29T02:40:39.473Z,20.80
2018-05-29T02:43:07.715Z,20.80
2018-05-29T02:45:35.846Z,20.80
2018-05-29T02:48:04.005Z,20.70
2018-05-29T02:50:33.008Z,20.60
2018-05-29T02:53:01.122Z,20.60
2018-05-29T02:55:30.694Z,20.60
2018-05-29T02:57:59.399Z,20.50
2018-05-29T03:00:28.497Z,20.50
2018-05-29T03:02:58.928Z,20.40
2018-05-29T03:05:28.839Z,20.40
2018-05-29T03:07:57.164Z,20.40
2018-05-29T03:10:25.285Z,20.30
2018-05-29T03:12:54.178Z,20.30
2018-05-29T03:15:23.139Z,20.30
2018-05-29T03:17:51.829Z,20.30
2018-05-29T03:20:19.962Z,20.30
2018-05-29T03:22:48.075Z,20.20
2018-05-29T03:25:16.219Z,20.20
2018-05-29T03:27:44.321Z,20.30
2018-05-29T03:30:13.947Z,20.20
2018-05-29T03:32:42.063Z,20.20
2018-05-29T03:35:10.252Z,20.20
2018-05-29T03:37:38.364Z,20.30
2018-05-29T03:40:07.238Z,20.20
2018-05-29T03:42:36.219Z,20.20
2018-05-29T03:45:04.351Z,20.20
2018-05-29T03:47:32.468Z,20.20
2018-05-29T03:50:00.579Z,20.20
2018-05-29T03:52:29.474Z,20.20
2018-05-29T03:54:58.337Z,20.20
2018-05-29T03:57:27.363Z,20.30
2018-05-29T03:59:55.467Z,20.20
2018-05-29T04:02:23.623Z,20.30
2018-05-29T04:04:51.917Z,20.30
2018-05-29T04:07:20.842Z,20.30
2018-05-29T04:09:49.028Z,20.30
2018-05-29T04:12:17.916Z,20.40
2018-05-29T04:14:46.878Z,20.40
2018-05-29T04:17:15.171Z,20.40
2018-05-29T04:19:43.936Z,20.50
2018-05-29T04:22:12.086Z,20.50
2018-05-29T04:24:40.202Z,20.50
2018-05-29T04:27:08.424Z,20.60
2018-05-29T04:29:36.563Z,20.50
2018-05-29T04:32:05.338Z,20.50
2018-05-29T04:34:33.933Z,20.50
2018-05-29T04:37:02.071Z,20.50
2018-05-29T04:39:30.203Z,20.50
2018-05-29T04:41:58.864Z,20.60
2018-05-29T04:44:27.075Z,20.70
2018-05-29T04:46:55.208Z,20.60
2018-05-29T04:49:23.324Z,20.60
2018-05-29T04:51:51.552Z,20.70
2018-05-29T04:54:21.767Z,20.80
2018-05-29T04:56:50.408Z,20.80
2018-05-29T04:59:18.536Z,20.80
2018-05-29T05:01:47.762Z,20.90
2018-05-29T05:04:15.884Z,20.80
2018-05-29T05:06:45.246Z,20.80
2018-05-29T05:09:13.555Z,20.80
2018-05-29T05:11:41.724Z,20.90
2018-05-29T05:14:09.845Z,21.00
2018-05-29T05:16:38.904Z,21.00
2018-05-29T05:19:07.056Z,21.00
2018-05-29T05:21:35.301Z,21.00
2018-05-29T05:24:04.210Z,21.10
2018-05-29T05:26:32.338Z,21.10
2018-05-29T05:29:00.460Z,21.20
2018-05-29T05:31:28.582Z,21.20
2018-05-29T05:33:56.706Z,21.30
2018-05-29T05:36:24.844Z,21.40
2018-05-29T05:38:52.945Z,21.50
2018-05-29T05:41:21.253Z,21.50
2018-05-29T05:43:50.943Z,21.60
2018-05-29T05:46:19.066Z,21.70
2018-05-29T05:48:47.209Z,21.70
2018-05-29T05:51:15.643Z,21.70
2018-05-29T05:53:45.860Z,21.80
2018-05-29T05:56:14.741Z,21.90
2018-05-29T05:58:44.274Z,22.00
2018-05-29T06:01:12.413Z,22.00
2018-05-29T06:03:40.815Z,22.20
2018-05-29T06:06:08.965Z,22.40
2018-05-29T06:08:37.437Z,22.50
2018-05-29T06:11:06.899Z,22.60
2018-05-29T06:13:35.095Z,22.70
2018-05-29T06:16:03.639Z,22.80
2018-05-29T06:18:31.798Z,22.90
2018-05-29T06:21:00.810Z,23.00
2018-05-29T06:23:29.407Z,23.00
2018-05-29T06:25:59.323Z,23.10
2018-05-29T06:28:27.557Z,23.10
2018-05-29T06:30:55.812Z,23.10
2018-05-29T06:33:24.087Z,23.20
2018-05-29T06:35:52.202Z,23.30
2018-05-29T06:38:20.905Z,23.30
2018-05-29T06:40:49.081Z,23.40
2018-05-29T06:43:17.304Z,23.40
2018-05-29T06:45:45.929Z,23.40
2018-05-29T06:48:14.051Z,23.60
2018-05-29T06:50:42.187Z,23.70
2018-05-29T06:53:10.444Z,23.80
2018-05-29T06:55:42.394Z,24.00
2018-05-29T06:58:11.425Z,24.00
2018-05-29T07:00:39.642Z,24.00
2018-05-29T07:03:08.347Z,24.00
2018-05-29T07:05:37.218Z,24.20
2018-05-29T07:08:05.483Z,24.10
2018-05-29T07:10:34.107Z,24.30
2018-05-29T07:13:02.237Z,24.40
2018-05-29T07:15:30.366Z,24.70
2018-05-29T07:17:59.808Z,24.90
2018-05-29T07:20:27.913Z,25.20
2018-05-29T07:22:56.100Z,25.20
2018-05-29T07:25:25.847Z,25.20
2018-05-29T07:27:53.986Z,25.10
2018-05-29T07:30:22.880Z,25.20
2018-05-29T07:32:51.064Z,25.10
2018-05-29T07:35:19.170Z,25.20
2018-05-29T07:37:48.642Z,25.30
2018-05-29T07:40:19.526Z,25.20
2018-05-29T07:42:47.624Z,25.30
2018-05-29T07:45:16.570Z,25.50
2018-05-29T07:47:45.568Z,25.70
2018-05-29T07:50:13.749Z,25.60
2018-05-29T07:52:41.872Z,25.70
2018-05-29T07:55:11.388Z,25.90
2018-05-29T07:57:39.523Z,25.90
2018-05-29T08:00:07.775Z,26.10
2018-05-29T08:02:36.005Z,26.30
2018-05-29T08:05:05.354Z,26.50
2018-05-29T08:07:33.476Z,26.50
2018-05-29T08:10:03.770Z,26.30
2018-05-29T08:12:31.887Z,26.30
2018-05-29T08:15:00.131Z,26.30
2018-05-29T08:17:29.017Z,26.60
2018-05-29T08:19:57.929Z,26.90
2018-05-29T08:22:26.798Z,26.90
2018-05-29T08:24:54.953Z,26.90
2018-05-29T08:27:23.155Z,26.90
2018-05-29T08:29:52.147Z,26.80
2018-05-29T08:32:21.022Z,27.00
2018-05-29T08:34:49.172Z,27.00
2018-05-29T08:37:17.327Z,27.00
2018-05-29T08:39:45.982Z,27.20
2018-05-29T08:42:14.123Z,27.20
2018-05-29T08:44:42.242Z,27.20
2018-05-29T08:47:10.405Z,27.00
2018-05-29T08:49:39.385Z,26.90
2018-05-29T08:52:08.335Z,27.00
2018-05-29T08:54:36.464Z,27.00
2018-05-29T08:57:05.340Z,27.00
2018-05-29T08:59:34.242Z,26.80
2018-05-29T09:02:03.134Z,26.70
2018-05-29T09:04:31.323Z,26.70
2018-05-29T09:06:59.462Z,26.80
2018-05-29T09:09:27.570Z,26.90
2018-05-29T09:11:56.425Z,27.00
2018-05-29T09:14:24.534Z,27.40
2018-05-29T09:16:52.811Z,27.60
2018-05-29T09:19:23.014Z,27.80
2018-05-29T09:21:51.894Z,27.70
2018-05-29T09:24:20.883Z,27.60
2018-05-29T09:26:48.984Z,27.60
2018-05-29T09:29:17.094Z,27.50
2018-05-29T09:31:45.229Z,27.60
2018-05-29T09:34:15.965Z,27.80
2018-05-29T09:36:44.067Z,27.80
2018-05-29T09:39:12.235Z,27.90
2018-05-29T09:41:40.352Z,28.10
2018-05-29T09:44:09.321Z,28.60
2018-05-29T09:46:38.033Z,28.60
2018-05-29T09:49:06.262Z,28.40
2018-05-29T09:51:34.551Z,28.40
2018-05-29T09:54:02.684Z,28.30
2018-05-29T09:56:30.923Z,28.40
2018-05-29T09:58:59.047Z,28.40
2018-05-29T10:01:27.182Z,28.40
2018-05-29T10:03:55.420Z,28.50
2018-05-29T10:06:23.622Z,28.20
2018-05-29T10:08:51.893Z,28.00
2018-05-29T10:11:21.255Z,28.20
2018-05-29T10:13:49.374Z,28.40
2018-05-29T10:16:17.503Z,28.40
2018-05-29T10:18:45.623Z,28.60
2018-05-29T10:21:13.780Z,28.60
2018-05-29T10:23:41.991Z,28.50
2018-05-29T10:26:10.888Z,28.00
2018-05-29T10:28:39.122Z,28.00
2018-05-29T10:31:07.245Z,27.80
2018-05-29T10:33:35.359Z,27.80
2018-05-29T10:36:03.575Z,27.80
2018-05-29T10:38:32.462Z,27.80
2018-05-29T10:41:01.365Z,27.90
2018-05-29T10:43:29.555Z,27.90
2018-05-29T10:45:59.088Z,28.20
2018-05-29T10:48:27.196Z,28.40
2018-05-29T10:50:56.146Z,28.60
2018-05-29T10:53:24.301Z,28.50
2018-05-29T10:55:52.416Z,28.60
2018-05-29T10:58:20.619Z,28.70
2018-05-29T11:00:49.504Z,29.10
2018-05-29T11:03:18.403Z,29.40
2018-05-29T11:05:46.671Z,29.40
2018-05-29T11:08:15.746Z,30.20
2018-05-29T11:10:44.013Z,30.20
2018-05-29T11:13:12.291Z,30.60
2018-05-29T11:15:40.414Z,31.00
2018-05-29T11:18:08.583Z,31.30
2018-05-29T11:20:38.191Z,31.60
2018-05-29T11:23:06.355Z,31.80
2018-05-29T11:25:35.248Z,31.50
2018-05-29T11:28:04.124Z,31.40
2018-05-29T11:30:33.563Z,31.30
2018-05-29T11:33:01.713Z,31.30
2018-05-29T11:35:30.607Z,31.40
2018-05-29T11:37:59.518Z,31.10
2018-05-29T11:40:27.657Z,31.10
2018-05-29T11:42:56.561Z,31.10
2018-05-29T11:45:25.466Z,31.10
2018-05-29T11:47:53.634Z,31.10
2018-05-29T11:50:21.745Z,30.90
2018-05-29T11:52:49.999Z,30.90
2018-05-29T11:55:18.133Z,31.00
2018-05-29T11:57:47.124Z,30.70
2018-05-29T12:00:16.115Z,30.80
2018-05-29T12:02:45.021Z,30.70
2018-05-29T12:05:15.639Z,30.60
2018-05-29T12:07:43.908Z,30.50
2018-05-29T12:10:12.057Z,30.80
2018-05-29T12:12:40.296Z,31.10
2018-05-29T12:15:08.481Z,31.10
2018-05-29T12:17:36.683Z,31.20
2018-05-29T12:20:07.082Z,30.80
2018-05-29T12:22:35.205Z,30.10
2018-05-29T12:25:03.379Z,29.80
2018-05-29T12:27:31.630Z,29.60
2018-05-29T12:29:59.751Z,29.50
2018-05-29T12:32:27.898Z,29.50
2018-05-29T12:34:56.047Z,29.50
2018-05-29T12:37:24.306Z,29.50
2018-05-29T12:39:52.480Z,29.40
2018-05-29T12:42:20.803Z,29.50
2018-05-29T12:44:50.440Z,29.50
2018-05-29T12:47:18.728Z,29.50
2018-05-29T12:49:46.861Z,29.80
2018-05-29T12:52:15.560Z,30.10
2018-05-29T12:54:46.241Z,30.50
2018-05-29T12:57:15.209Z,30.50
2018-05-29T12:59:45.576Z,30.50
2018-05-29T13:02:13.703Z,30.50
2018-05-29T13:04:41.858Z,30.40
2018-05-29T13:07:10.766Z,30.40
2018-05-29T13:09:39.766Z,30.30
2018-05-29T13:12:07.974Z,30.30
2018-05-29T13:14:37.175Z,30.50
2018-05-29T13:17:05.909Z,30.60
2018-05-29T13:19:34.053Z,30.70
2018-05-29T13:22:02.329Z,30.80
2018-05-29T13:24:30.495Z,31.00
2018-05-29T13:26:59.620Z,30.40
2018-05-29T13:29:30.192Z,30.30
2018-05-29T13:31:58.360Z,30.00
2018-05-29T13:34:27.138Z,30.00
2018-05-29T13:36:55.309Z,29.70
2018-05-29T13:39:23.478Z,29.60
2018-05-29T13:41:51.697Z,29.50
2018-05-29T13:44:20.659Z,29.40
2018-05-29T13:46:48.903Z,29.30
2018-05-29T13:49:17.910Z,28.90
2018-05-29T13:51:47.923Z,28.90
2018-05-29T13:54:16.821Z,28.60
2018-05-29T13:56:45.004Z,28.50
2018-05-29T13:59:13.144Z,28.50
2018-05-29T14:01:42.556Z,28.30
2018-05-29T14:04:11.580Z,28.20
2018-05-29T14:06:39.717Z,28.10
2018-05-29T14:09:07.890Z,27.90
2018-05-29T14:11:36.797Z,27.70
2018-05-29T14:14:05.872Z,27.80
2018-05-29T14:16:34.122Z,27.70
2018-05-29T14:19:02.414Z,27.90
2018-05-29T14:21:30.615Z,28.10
2018-05-29T14:23:59.744Z,28.40
2018-05-29T14:26:28.043Z,28.40
2018-05-29T14:28:56.234Z,28.60
2018-05-29T14:31:24.519Z,28.60
2018-05-29T14:33:52.832Z,28.80
2018-05-29T14:36:21.019Z,29.00
2018-05-29T14:38:49.370Z,29.10
2018-05-29T14:41:19.658Z,29.20
2018-05-29T14:43:47.804Z,29.20
2018-05-29T14:46:15.984Z,29.20
2018-05-29T14:48:44.239Z,29.20
2018-05-29T14:51:12.465Z,29.20
2018-05-29T14:53:40.775Z,28.80
2018-05-29T14:56:09.673Z,29.10
2018-05-29T14:58:38.591Z,29.30
2018-05-29T15:01:06.735Z,29.30
2018-05-29T15:03:34.899Z,28.90
2018-05-29T15:06:03.797Z,28.30
2018-05-29T15:08:32.698Z,28.20
2018-05-29T15:11:00.824Z,28.20
2018-05-29T15:13:30.962Z,28.20
2018-05-29T15:15:59.163Z,28.20
2018-05-29T15:18:27.302Z,28.20
2018-05-29T15:20:56.696Z,28.30
2018-05-29T15:23:25.743Z,28.30
2018-05-29T15:25:54.048Z,28.20
2018-05-29T15:28:22.544Z,28.00
2018-05-29T15:30:51.596Z,27.80
2018-05-29T15:33:20.934Z,27.90
2018-05-29T15:35:49.067Z,27.80
2018-05-29T15:38:17.186Z,27.90
2018-05-29T15:40:45.358Z,27.60
2018-05-29T15:43:13.477Z,27.30
2018-05-29T15:45:46.248Z,26.20
2018-05-29T15:48:15.159Z,25.80
2018-05-29T15:50:43.378Z,25.70
2018-05-29T15:53:11.599Z,25.40
2018-05-29T15:55:41.571Z,24.70
2018-05-29T15:58:09.693Z,24.70
2018-05-29T16:00:38.994Z,24.40
2018-05-29T16:03:07.259Z,24.40
2018-05-29T16:05:36.134Z,24.40
2018-05-29T16:08:04.473Z,24.40
2018-05-29T16:10:32.719Z,24.50
2018-05-29T16:13:01.124Z,24.70
2018-05-29T16:15:29.295Z,24.80
2018-05-29T16:17:57.978Z,25.20
2018-05-29T16:20:26.268Z,25.50
2018-05-29T16:22:54.717Z,25.50
2018-05-29T16:25:23.461Z,25.60
2018-05-29T16:27:51.699Z,25.60
2018-05-29T16:30:20.651Z,25.60
2018-05-29T16:32:49.675Z,25.80
2018-05-29T16:35:17.811Z,25.70
2018-05-29T16:37:46.545Z,25.80
2018-05-29T16:40:14.828Z,25.90
2018-05-29T16:42:42.969Z,25.70
2018-05-29T16:45:11.135Z,25.40
2018-05-29T16:47:39.514Z,25.10
2018-05-29T16:50:08.505Z,25.00
2018-05-29T16:52:37.423Z,25.00
2018-05-29T16:55:05.529Z,25.00
2018-05-29T16:57:33.676Z,24.90
2018-05-29T17:00:03.520Z,24.90
2018-05-29T17:02:31.670Z,24.80
2018-05-29T17:04:59.890Z,24.90
2018-05-29T17:07:28.075Z,25.00
2018-05-29T17:09:56.427Z,25.20
2018-05-29T17:12:24.549Z,25.40
2018-05-29T17:14:52.665Z,25.70
2018-05-29T17:17:20.777Z,25.70
2018-05-29T17:19:50.114Z,25.40
2018-05-29T17:22:18.276Z,25.40
2018-05-29T17:24:46.472Z,25.30
2018-05-29T17:27:14.598Z,25.20
2018-05-29T17:29:43.541Z,25.00
2018-05-29T17:32:11.646Z,25.00
2018-05-29T17:34:42.272Z,24.90
2018-05-29T17:37:10.441Z,24.90
2018-05-29T17:39:38.616Z,24.90
2018-05-29T17:42:06.859Z,24.80
2018-05-29T17:44:35.196Z,24.70
2018-05-29T17:47:04.295Z,24.40
2018-05-29T17:49:34.598Z,24.40
2018-05-29T17:52:03.513Z,24.40
2018-05-29T17:54:31.663Z,24.40
2018-05-29T17:57:00.594Z,24.20
2018-05-29T17:59:30.287Z,24.10
2018-05-29T18:01:59.174Z,24.20
2018-05-29T18:04:27.343Z,24.20
2018-05-29T18:06:56.408Z,24.20
2018-05-29T18:09:24.537Z,24.20
2018-05-29T18:11:52.695Z,24.20
2018-05-29T18:14:23.205Z,24.20
2018-05-29T18:16:52.215Z,24.10
2018-05-29T18:19:22.323Z,24.10
2018-05-29T18:21:50.613Z,24.10
2018-05-29T18:24:18.782Z,24.10
2018-05-29T18:26:47.153Z,24.10
2018-05-29T18:29:16.044Z,23.90
2018-05-29T18:31:44.938Z,23.90
2018-05-29T18:34:13.483Z,23.80
2018-05-29T18:36:41.657Z,23.80
2018-05-29T18:39:09.789Z,23.80
2018-05-29T18:41:37.906Z,23.70
2018-05-29T18:44:06.062Z,23.60
2018-05-29T18:46:34.204Z,23.60
2018-05-29T18:49:02.351Z,23.50
2018-05-29T18:51:33.095Z,23.50
2018-05-29T18:54:01.992Z,23.30
2018-05-29T18:56:30.115Z,23.20
2018-05-29T18:58:58.300Z,23.20
2018-05-29T19:01:27.983Z,23.10
2018-05-29T19:03:56.113Z,23.00
2018-05-29T19:06:25.022Z,22.90
2018-05-29T19:08:53.167Z,22.80
2018-05-29T19:11:24.001Z,22.70
2018-05-29T19:13:52.539Z,22.70
2018-05-29T19:16:21.503Z,22.60
2018-05-29T19:18:49.635Z,22.50
2018-05-29T19:21:17.853Z,22.40
2018-05-29T19:23:45.970Z,22.30
2018-05-29T19:26:16.033Z,22.20
2018-05-29T19:28:44.970Z,22.10
2018-05-29T19:31:14.004Z,22.00
2018-05-29T19:33:42.945Z,22.00
2018-05-29T19:36:11.357Z,21.90
2018-05-29T19:38:39.495Z,21.90
2018-05-29T19:41:07.628Z,21.90
2018-05-29T19:43:36.533Z,21.80
2018-05-29T19:46:04.753Z,21.70
2018-05-29T19:48:32.987Z,21.60
2018-05-29T19:51:01.187Z,21.50
2018-05-29T19:53:30.649Z,21.30
2018-05-29T19:55:59.606Z,21.20
2018-05-29T19:58:27.793Z,21.10
2018-05-29T20:00:58.624Z,21.00
2018-05-29T20:03:30.618Z,20.90
2018-05-29T20:05:59.481Z,20.70
2018-05-29T20:08:27.615Z,20.60
2018-05-29T20:10:55.817Z,20.60
2018-05-29T20:13:23.921Z,20.50
2018-05-29T20:15:52.804Z,20.40
2018-05-29T20:18:21.788Z,20.40
2018-05-29T20:20:50.120Z,20.40
2018-05-29T20:23:19.460Z,20.30
2018-05-29T20:25:47.789Z,20.40
2018-05-29T20:28:17.959Z,20.50
2018-05-29T20:30:46.186Z,20.40
2018-05-29T20:33:14.727Z,20.50
2018-05-29T20:35:42.835Z,20.40
2018-05-29T20:38:10.961Z,20.20
2018-05-29T20:40:39.132Z,20.20
2018-05-29T20:43:07.263Z,20.10
2018-05-29T20:45:35.401Z,20.10
2018-05-29T20:48:04.390Z,20.20
2018-05-29T20:50:32.502Z,20.20
2018-05-29T20:53:00.647Z,20.30
2018-05-29T20:55:29.538Z,20.30
2018-05-29T20:57:58.491Z,20.30
2018-05-29T21:00:26.700Z,20.30
2018-05-29T21:02:55.652Z,20.30
2018-05-29T21:05:23.786Z,20.30
2018-05-29T21:07:51.933Z,20.30
2018-05-29T21:10:20.858Z,20.20
2018-05-29T21:12:49.017Z,20.20
2018-05-29T21:15:17.258Z,20.20
2018-05-29T21:17:45.411Z,20.20
2018-05-29T21:20:13.653Z,20.10
2018-05-29T21:22:41.842Z,20.00
2018-05-29T21:25:11.387Z,19.90
2018-05-29T21:27:39.587Z,19.80
2018-05-29T21:30:08.527Z,19.70
2018-05-29T21:32:36.671Z,19.70
2018-05-29T21:35:06.367Z,19.70
2018-05-29T21:37:35.275Z,19.50
2018-05-29T21:40:06.074Z,19.50
2018-05-29T21:42:34.200Z,19.40
2018-05-29T21:45:02.325Z,19.40
2018-05-29T21:47:31.228Z,19.30
2018-05-29T21:49:59.476Z,19.20
2018-05-29T21:52:27.602Z,19.20
2018-05-29T21:54:55.768Z,19.10
2018-05-29T21:57:23.919Z,19.10
2018-05-29T21:59:52.903Z,19.00
2018-05-29T22:02:23.322Z,19.00
2018-05-29T22:04:51.460Z,19.00
2018-05-29T22:07:19.589Z,18.90
2018-05-29T22:09:47.812Z,18.90
2018-05-29T22:12:17.321Z,18.90
2018-05-29T22:14:45.623Z,18.80
2018-05-29T22:17:13.727Z,18.80
2018-05-29T22:19:41.847Z,18.70
2018-05-29T22:22:09.987Z,18.70
2018-05-29T22:24:39.178Z,18.60
2018-05-29T22:27:07.332Z,18.60
2018-05-29T22:29:36.299Z,18.50
2018-05-29T22:32:04.438Z,18.50
2018-05-29T22:34:32.552Z,18.50
2018-05-29T22:37:01.479Z,18.50
2018-05-29T22:39:29.634Z,18.50
2018-05-29T22:41:57.773Z,18.40
2018-05-29T22:44:25.905Z,18.40
2018-05-29T22:46:55.103Z,18.30
2018-05-29T22:49:23.245Z,18.30
2018-05-29T22:51:52.376Z,18.30
2018-05-29T22:54:20.511Z,18.30
2018-05-29T22:56:49.579Z,18.30
2018-05-29T22:59:17.720Z,18.30
2018-05-29T23:01:45.855Z,18.30
2018-05-29T23:04:14.828Z,18.30
2018-05-29T23:06:43.091Z,18.20
2018-05-29T23:09:11.290Z,18.20
2018-05-29T23:11:39.698Z,18.20
2018-05-29T23:14:07.853Z,18.10
2018-05-29T23:16:36.741Z,18.10
2018-05-29T23:19:05.654Z,18.10
2018-05-29T23:21:36.106Z,18.00
2018-05-29T23:24:04.223Z,18.00
2018-05-29T23:26:32.383Z,18.00
2018-05-29T23:29:00.534Z,18.00
2018-05-29T23:31:28.645Z,17.90
2018-05-29T23:33:57.632Z,17.90
2018-05-29T23:36:25.890Z,17.90
2018-05-29T23:38:54.061Z,17.90
2018-05-29T23:41:22.229Z,17.80
2018-05-29T23:43:50.364Z,17.90
2018-05-29T23:46:19.283Z,17.80
2018-05-29T23:48:48.259Z,17.80
2018-05-29T23:51:16.428Z,17.80
2018-05-29T23:53:44.561Z,17.80
2018-05-29T23:56:13.090Z,17.80
2018-05-29T23:58:42.123Z,17.80
